Coober Pedy, Australia
Current Conditions -  °F | °C
As of 12:00 AM on Friday 19 Dec 2014 (Local Time) from YCBP Reporting Station
Clear Clear  
Wind Chill: 79°   Ceiling: Unl
Heat Index: 79°   Visibility: NA
Dew Point: 41°   Wind: 24mph
Humidity: 26%   Direction: 170°S
Pressure: 29.94"   Gusts: NA
Location:  29.01°S, 134.75°E
Report Text: YCBP 181400Z AUTO 17021KT //// // NCD 26/05 Q1014
Loading
Personal Weather Stations






























Interactive Weather Map New forecast layout! Learn more

10-Day Weather Forecast

Advertisements
Track Severe Weather on mobile